sensor_id;sensor_type;location;lat;lon;timestamp;temperature;humidity
12164;DHT22;6145;50.192;10.064;2023-04-09T00:00:09;8.50;79.50
12164;DHT22;6145;50.192;10.064;2023-04-09T00:02:35;8.50;79.70
12164;DHT22;6145;50.192;10.064;2023-04-09T00:05:03;8.50;79.90
12164;DHT22;6145;50.192;10.064;2023-04-09T00:07:31;8.50;80.00
12164;DHT22;6145;50.192;10.064;2023-04-09T00:10:00;8.50;80.10
12164;DHT22;6145;50.192;10.064;2023-04-09T00:12:27;8.40;80.10
12164;DHT22;6145;50.192;10.064;2023-04-09T00:14:55;8.40;80.00
12164;DHT22;6145;50.192;10.064;2023-04-09T00:17:22;8.40;80.10
12164;DHT22;6145;50.192;10.064;2023-04-09T00:19:48;9.80;81.30
12164;DHT22;6145;50.192;10.064;2023-04-09T00:22:15;8.40;80.20
12164;DHT22;6145;50.192;10.064;2023-04-09T00:24:43;8.40;80.30
12164;DHT22;6145;50.192;10.064;2023-04-09T00:27:13;8.80;80.70
12164;DHT22;6145;50.192;10.064;2023-04-09T00:29:40;8.40;80.50
12164;DHT22;6145;50.192;10.064;2023-04-09T00:32:07;9.00;81.00
12164;DHT22;6145;50.192;10.064;2023-04-09T00:34:34;8.40;81.40
12164;DHT22;6145;50.192;10.064;2023-04-09T00:37:12;8.40;80.80
12164;DHT22;6145;50.192;10.064;2023-04-09T00:39:38;9.30;81.50
12164;DHT22;6145;50.192;10.064;2023-04-09T00:42:07;8.70;80.80
12164;DHT22;6145;50.192;10.064;2023-04-09T00:44:34;8.40;80.40
12164;DHT22;6145;50.192;10.064;2023-04-09T00:47:00;8.40;80.50
12164;DHT22;6145;50.192;10.064;2023-04-09T00:49:27;8.40;80.60
12164;DHT22;6145;50.192;10.064;2023-04-09T00:51:54;8.40;80.50
12164;DHT22;6145;50.192;10.064;2023-04-09T00:54:21;8.40;80.60
12164;DHT22;6145;50.192;10.064;2023-04-09T00:56:48;8.40;80.50
12164;DHT22;6145;50.192;10.064;2023-04-09T00:59:17;8.40;80.60
12164;DHT22;6145;50.192;10.064;2023-04-09T01:01:44;8.40;80.70
12164;DHT22;6145;50.192;10.064;2023-04-09T01:04:11;8.40;80.60
12164;DHT22;6145;50.192;10.064;2023-04-09T01:06:42;8.40;80.50
12164;DHT22;6145;50.192;10.064;2023-04-09T01:09:14;8.40;80.60
12164;DHT22;6145;50.192;10.064;2023-04-09T01:11:53;8.40;80.70
12164;DHT22;6145;50.192;10.064;2023-04-09T01:14:31;8.40;80.50
12164;DHT22;6145;50.192;10.064;2023-04-09T01:17:04;8.40;80.60
12164;DHT22;6145;50.192;10.064;2023-04-09T01:19:43;8.40;80.70
12164;DHT22;6145;50.192;10.064;2023-04-09T01:22:22;8.40;81.00
12164;DHT22;6145;50.192;10.064;2023-04-09T01:25:02;8.40;81.00
12164;DHT22;6145;50.192;10.064;2023-04-09T01:27:36;8.30;81.20
12164;DHT22;6145;50.192;10.064;2023-04-09T01:30:08;8.40;81.40
12164;DHT22;6145;50.192;10.064;2023-04-09T01:32:36;8.30;81.30
12164;DHT22;6145;50.192;10.064;2023-04-09T01:35:08;8.30;81.40
12164;DHT22;6145;50.192;10.064;2023-04-09T01:37:35;8.30;81.50
12164;DHT22;6145;50.192;10.064;2023-04-09T01:40:04;8.90;82.10
12164;DHT22;6145;50.192;10.064;2023-04-09T01:42:32;8.30;81.70
12164;DHT22;6145;50.192;10.064;2023-04-09T01:44:59;8.30;81.40
12164;DHT22;6145;50.192;10.064;2023-04-09T01:47:29;8.30;81.60
12164;DHT22;6145;50.192;10.064;2023-04-09T01:49:56;8.30;81.50
12164;DHT22;6145;50.192;10.064;2023-04-09T01:52:23;8.30;81.60
12164;DHT22;6145;50.192;10.064;2023-04-09T01:54:50;8.30;81.40
12164;DHT22;6145;50.192;10.064;2023-04-09T01:57:17;8.30;81.50
12164;DHT22;6145;50.192;10.064;2023-04-09T01:59:44;8.20;81.50
12164;DHT22;6145;50.192;10.064;2023-04-09T02:02:15;8.20;81.40
12164;DHT22;6145;50.192;10.064;2023-04-09T02:04:46;8.20;81.70
12164;DHT22;6145;50.192;10.064;2023-04-09T02:07:21;8.20;81.70
12164;DHT22;6145;50.192;10.064;2023-04-09T02:09:52;8.70;82.10
12164;DHT22;6145;50.192;10.064;2023-04-09T02:12:20;8.20;81.60
12164;DHT22;6145;50.192;10.064;2023-04-09T02:14:50;8.30;81.60
12164;DHT22;6145;50.192;10.064;2023-04-09T02:17:17;8.30;81.60
12164;DHT22;6145;50.192;10.064;2023-04-09T02:19:47;8.30;81.50
12164;DHT22;6145;50.192;10.064;2023-04-09T02:22:14;8.20;81.40
12164;DHT22;6145;50.192;10.064;2023-04-09T02:24:41;8.20;81.30
12164;DHT22;6145;50.192;10.064;2023-04-09T02:27:08;8.30;81.40
12164;DHT22;6145;50.192;10.064;2023-04-09T02:29:35;8.20;81.30
12164;DHT22;6145;50.192;10.064;2023-04-09T02:32:02;8.20;81.50
12164;DHT22;6145;50.192;10.064;2023-04-09T02:34:29;8.20;81.50
12164;DHT22;6145;50.192;10.064;2023-04-09T02:36:57;8.20;81.70
12164;DHT22;6145;50.192;10.064;2023-04-09T02:39:24;8.20;81.70
12164;DHT22;6145;50.192;10.064;2023-04-09T02:41:51;8.20;81.70
12164;DHT22;6145;50.192;10.064;2023-04-09T02:44:18;9.80;83.20
12164;DHT22;6145;50.192;10.064;2023-04-09T02:46:46;8.30;81.70
12164;DHT22;6145;50.192;10.064;2023-04-09T02:49:13;8.20;81.80
12164;DHT22;6145;50.192;10.064;2023-04-09T02:51:40;8.20;81.90
12164;DHT22;6145;50.192;10.064;2023-04-09T02:54:08;8.20;81.80
12164;DHT22;6145;50.192;10.064;2023-04-09T02:56:35;8.20;82.00
12164;DHT22;6145;50.192;10.064;2023-04-09T02:59:02;8.10;81.90
12164;DHT22;6145;50.192;10.064;2023-04-09T03:01:29;8.10;81.90
12164;DHT22;6145;50.192;10.064;2023-04-09T03:03:56;8.10;82.00
12164;DHT22;6145;50.192;10.064;2023-04-09T03:06:23;8.10;81.90
12164;DHT22;6145;50.192;10.064;2023-04-09T03:08:49;8.10;82.00
12164;DHT22;6145;50.192;10.064;2023-04-09T03:11:18;8.10;81.80
12164;DHT22;6145;50.192;10.064;2023-04-09T03:13:45;8.10;82.00
12164;DHT22;6145;50.192;10.064;2023-04-09T03:16:11;8.10;81.90
12164;DHT22;6145;50.192;10.064;2023-04-09T03:18:38;8.10;81.90
12164;DHT22;6145;50.192;10.064;2023-04-09T03:21:05;8.10;81.80
12164;DHT22;6145;50.192;10.064;2023-04-09T03:23:33;8.10;82.10
12164;DHT22;6145;50.192;10.064;2023-04-09T03:26:01;8.10;82.10
12164;DHT22;6145;50.192;10.064;2023-04-09T03:28:30;8.10;82.10
12164;DHT22;6145;50.192;10.064;2023-04-09T03:30:57;8.10;81.90
12164;DHT22;6145;50.192;10.064;2023-04-09T03:33:24;8.10;81.90
12164;DHT22;6145;50.192;10.064;2023-04-09T03:35:51;8.10;82.00
12164;DHT22;6145;50.192;10.064;2023-04-09T03:38:17;8.10;81.90
12164;DHT22;6145;50.192;10.064;2023-04-09T03:40:45;8.10;82.10
12164;DHT22;6145;50.192;10.064;2023-04-09T03:43:11;8.10;82.10
12164;DHT22;6145;50.192;10.064;2023-04-09T03:45:40;8.10;82.00
12164;DHT22;6145;50.192;10.064;2023-04-09T03:48:07;8.00;82.00
12164;DHT22;6145;50.192;10.064;2023-04-09T03:50:37;8.60;82.70
12164;DHT22;6145;50.192;10.064;2023-04-09T03:53:05;8.00;82.30
12164;DHT22;6145;50.192;10.064;2023-04-09T03:55:32;8.00;82.20
12164;DHT22;6145;50.192;10.064;2023-04-09T03:57:59;8.00;82.40
12164;DHT22;6145;50.192;10.064;2023-04-09T04:00:25;7.90;82.40
12164;DHT22;6145;50.192;10.064;2023-04-09T04:02:54;8.00;83.30
12164;DHT22;6145;50.192;10.064;2023-04-09T04:05:22;8.00;82.50
12164;DHT22;6145;50.192;10.064;2023-04-09T04:07:49;8.00;82.50
12164;DHT22;6145;50.192;10.064;2023-04-09T04:10:16;8.00;82.60
12164;DHT22;6145;50.192;10.064;2023-04-09T04:12:43;7.90;83.20
12164;DHT22;6145;50.192;10.064;2023-04-09T04:15:10;8.00;82.60
12164;DHT22;6145;50.192;10.064;2023-04-09T04:17:37;8.00;82.80
12164;DHT22;6145;50.192;10.064;2023-04-09T04:20:07;8.00;82.80
12164;DHT22;6145;50.192;10.064;2023-04-09T04:22:36;7.90;82.80
12164;DHT22;6145;50.192;10.064;2023-04-09T04:25:03;7.90;83.40
12164;DHT22;6145;50.192;10.064;2023-04-09T04:27:30;7.90;82.90
12164;DHT22;6145;50.192;10.064;2023-04-09T04:29:57;7.90;82.90
12164;DHT22;6145;50.192;10.064;2023-04-09T04:32:25;7.90;83.00
12164;DHT22;6145;50.192;10.064;2023-04-09T04:34:52;7.90;83.10
12164;DHT22;6145;50.192;10.064;2023-04-09T04:37:20;7.90;83.20
12164;DHT22;6145;50.192;10.064;2023-04-09T04:39:47;7.90;83.30
12164;DHT22;6145;50.192;10.064;2023-04-09T04:42:14;7.90;83.40
12164;DHT22;6145;50.192;10.064;2023-04-09T04:44:44;7.80;83.20
12164;DHT22;6145;50.192;10.064;2023-04-09T04:47:10;7.90;83.40
12164;DHT22;6145;50.192;10.064;2023-04-09T04:49:37;7.90;83.40
12164;DHT22;6145;50.192;10.064;2023-04-09T04:52:05;7.80;83.40
12164;DHT22;6145;50.192;10.064;2023-04-09T04:54:33;7.90;83.70
12164;DHT22;6145;50.192;10.064;2023-04-09T04:57:00;7.80;83.50
12164;DHT22;6145;50.192;10.064;2023-04-09T04:59:27;7.80;83.60
12164;DHT22;6145;50.192;10.064;2023-04-09T05:01:54;7.80;83.40
12164;DHT22;6145;50.192;10.064;2023-04-09T05:04:21;7.80;83.60
12164;DHT22;6145;50.192;10.064;2023-04-09T05:06:48;7.80;83.70
12164;DHT22;6145;50.192;10.064;2023-04-09T05:09:15;7.80;83.80
12164;DHT22;6145;50.192;10.064;2023-04-09T05:11:43;7.80;83.80
12164;DHT22;6145;50.192;10.064;2023-04-09T05:14:09;7.80;84.50
12164;DHT22;6145;50.192;10.064;2023-04-09T05:16:37;7.80;83.90
12164;DHT22;6145;50.192;10.064;2023-04-09T05:19:04;7.80;84.20
12164;DHT22;6145;50.192;10.064;2023-04-09T05:21:31;7.80;84.30
12164;DHT22;6145;50.192;10.064;2023-04-09T05:23:58;8.10;84.80
12164;DHT22;6145;50.192;10.064;2023-04-09T05:26:25;7.70;84.50
12164;DHT22;6145;50.192;10.064;2023-04-09T05:28:53;9.00;85.90
12164;DHT22;6145;50.192;10.064;2023-04-09T05:31:20;7.70;84.90
12164;DHT22;6145;50.192;10.064;2023-04-09T05:33:47;7.90;85.10
12164;DHT22;6145;50.192;10.064;2023-04-09T05:36:15;7.70;84.90
12164;DHT22;6145;50.192;10.064;2023-04-09T05:38:42;7.70;85.10
12164;DHT22;6145;50.192;10.064;2023-04-09T05:41:09;7.70;85.10
12164;DHT22;6145;50.192;10.064;2023-04-09T05:43:39;7.80;85.40
12164;DHT22;6145;50.192;10.064;2023-04-09T05:46:08;7.80;85.40
12164;DHT22;6145;50.192;10.064;2023-04-09T05:48:35;7.80;85.70
12164;DHT22;6145;50.192;10.064;2023-04-09T05:51:03;7.90;86.40
12164;DHT22;6145;50.192;10.064;2023-04-09T05:53:30;8.00;86.90
12164;DHT22;6145;50.192;10.064;2023-04-09T05:55:57;8.20;87.30
12164;DHT22;6145;50.192;10.064;2023-04-09T05:58:25;8.30;87.50
12164;DHT22;6145;50.192;10.064;2023-04-09T06:00:51;8.50;87.60
12164;DHT22;6145;50.192;10.064;2023-04-09T06:03:22;8.60;87.60
12164;DHT22;6145;50.192;10.064;2023-04-09T06:05:49;8.60;87.10
12164;DHT22;6145;50.192;10.064;2023-04-09T06:08:16;8.90;87.90
12164;DHT22;6145;50.192;10.064;2023-04-09T06:10:43;9.10;86.90
12164;DHT22;6145;50.192;10.064;2023-04-09T06:13:09;9.30;87.90
12164;DHT22;6145;50.192;10.064;2023-04-09T06:15:36;9.50;88.00
12164;DHT22;6145;50.192;10.064;2023-04-09T06:18:04;9.70;88.20
12164;DHT22;6145;50.192;10.064;2023-04-09T06:20:32;10.30;87.30
12164;DHT22;6145;50.192;10.064;2023-04-09T06:22:59;10.30;87.30
12164;DHT22;6145;50.192;10.064;2023-04-09T06:25:26;10.60;85.60
12164;DHT22;6145;50.192;10.064;2023-04-09T06:27:53;10.70;84.30
12164;DHT22;6145;50.192;10.064;2023-04-09T06:30:19;10.90;81.70
12164;DHT22;6145;50.192;10.064;2023-04-09T06:32:47;11.10;80.00
12164;DHT22;6145;50.192;10.064;2023-04-09T06:35:14;11.20;79.70
12164;DHT22;6145;50.192;10.064;2023-04-09T06:37:42;11.40;78.80
12164;DHT22;6145;50.192;10.064;2023-04-09T06:40:09;11.50;79.30
12164;DHT22;6145;50.192;10.064;2023-04-09T06:42:36;11.60;76.90
12164;DHT22;6145;50.192;10.064;2023-04-09T06:45:05;11.70;74.70
12164;DHT22;6145;50.192;10.064;2023-04-09T06:47:33;11.70;74.00
12164;DHT22;6145;50.192;10.064;2023-04-09T06:50:00;11.80;74.30
12164;DHT22;6145;50.192;10.064;2023-04-09T06:52:26;11.90;74.10
12164;DHT22;6145;50.192;10.064;2023-04-09T06:54:54;11.90;70.90
12164;DHT22;6145;50.192;10.064;2023-04-09T06:57:21;11.90;72.30
12164;DHT22;6145;50.192;10.064;2023-04-09T06:59:48;11.90;70.70
12164;DHT22;6145;50.192;10.064;2023-04-09T07:02:15;12.00;70.10
12164;DHT22;6145;50.192;10.064;2023-04-09T07:04:42;12.00;68.90
12164;DHT22;6145;50.192;10.064;2023-04-09T07:07:11;12.00;69.50
12164;DHT22;6145;50.192;10.064;2023-04-09T07:09:38;12.00;68.90
12164;DHT22;6145;50.192;10.064;2023-04-09T07:12:06;11.90;70.20
12164;DHT22;6145;50.192;10.064;2023-04-09T07:14:33;11.90;69.80
12164;DHT22;6145;50.192;10.064;2023-04-09T07:17:00;11.90;68.90
12164;DHT22;6145;50.192;10.064;2023-04-09T07:19:27;12.10;68.00
12164;DHT22;6145;50.192;10.064;2023-04-09T07:21:54;11.90;69.20
12164;DHT22;6145;50.192;10.064;2023-04-09T07:24:21;12.00;69.10
12164;DHT22;6145;50.192;10.064;2023-04-09T07:26:47;12.20;69.50
12164;DHT22;6145;50.192;10.064;2023-04-09T07:29:16;12.20;70.30
12164;DHT22;6145;50.192;10.064;2023-04-09T07:31:45;12.40;69.00
12164;DHT22;6145;50.192;10.064;2023-04-09T07:34:12;12.40;69.70
12164;DHT22;6145;50.192;10.064;2023-04-09T07:36:38;12.50;70.30
12164;DHT22;6145;50.192;10.064;2023-04-09T07:39:07;12.50;70.90
12164;DHT22;6145;50.192;10.064;2023-04-09T07:41:34;12.80;67.10
12164;DHT22;6145;50.192;10.064;2023-04-09T07:44:01;12.90;68.80
12164;DHT22;6145;50.192;10.064;2023-04-09T07:46:29;13.80;69.80
12164;DHT22;6145;50.192;10.064;2023-04-09T07:48:56;13.10;69.10
12164;DHT22;6145;50.192;10.064;2023-04-09T07:51:23;13.30;66.50
12164;DHT22;6145;50.192;10.064;2023-04-09T07:53:50;13.40;65.50
12164;DHT22;6145;50.192;10.064;2023-04-09T07:56:17;13.50;66.40
12164;DHT22;6145;50.192;10.064;2023-04-09T07:58:44;13.60;66.50
12164;DHT22;6145;50.192;10.064;2023-04-09T08:01:10;13.70;64.00
12164;DHT22;6145;50.192;10.064;2023-04-09T08:03:38;13.70;63.20
12164;DHT22;6145;50.192;10.064;2023-04-09T08:06:06;13.50;64.80
12164;DHT22;6145;50.192;10.064;2023-04-09T08:08:32;13.50;64.20
12164;DHT22;6145;50.192;10.064;2023-04-09T08:11:00;13.60;65.70
12164;DHT22;6145;50.192;10.064;2023-04-09T08:13:27;13.60;65.50
12164;DHT22;6145;50.192;10.064;2023-04-09T08:15:53;13.70;65.60
12164;DHT22;6145;50.192;10.064;2023-04-09T08:18:20;14.00;66.40
12164;DHT22;6145;50.192;10.064;2023-04-09T08:20:48;14.20;66.50
12164;DHT22;6145;50.192;10.064;2023-04-09T08:23:16;15.70;66.50
12164;DHT22;6145;50.192;10.064;2023-04-09T08:25:43;14.50;65.40
12164;DHT22;6145;50.192;10.064;2023-04-09T08:28:16;14.60;64.00
12164;DHT22;6145;50.192;10.064;2023-04-09T08:30:42;14.50;62.80
12164;DHT22;6145;50.192;10.064;2023-04-09T08:33:09;14.50;62.90
12164;DHT22;6145;50.192;10.064;2023-04-09T08:35:36;14.60;63.50
12164;DHT22;6145;50.192;10.064;2023-04-09T08:38:06;14.70;63.80
12164;DHT22;6145;50.192;10.064;2023-04-09T08:40:33;14.90;62.40
12164;DHT22;6145;50.192;10.064;2023-04-09T08:43:03;14.90;63.20
12164;DHT22;6145;50.192;10.064;2023-04-09T08:45:30;15.90;63.60
12164;DHT22;6145;50.192;10.064;2023-04-09T08:47:57;14.90;61.70
12164;DHT22;6145;50.192;10.064;2023-04-09T08:50:25;14.90;60.00
12164;DHT22;6145;50.192;10.064;2023-04-09T08:52:52;14.80;59.60
12164;DHT22;6145;50.192;10.064;2023-04-09T08:55:31;14.60;59.70
12164;DHT22;6145;50.192;10.064;2023-04-09T08:58:03;14.60;62.60
12164;DHT22;6145;50.192;10.064;2023-04-09T09:00:31;14.80;63.70
12164;DHT22;6145;50.192;10.064;2023-04-09T09:03:09;14.90;63.80
12164;DHT22;6145;50.192;10.064;2023-04-09T09:05:39;15.20;60.90
12164;DHT22;6145;50.192;10.064;2023-04-09T09:08:07;15.30;58.90
12164;DHT22;6145;50.192;10.064;2023-04-09T09:10:41;15.20;58.40
12164;DHT22;6145;50.192;10.064;2023-04-09T09:13:22;15.10;58.40
12164;DHT22;6145;50.192;10.064;2023-04-09T09:15:49;14.90;58.50
12164;DHT22;6145;50.192;10.064;2023-04-09T09:18:19;14.90;60.00
12164;DHT22;6145;50.192;10.064;2023-04-09T09:20:46;15.20;62.60
12164;DHT22;6145;50.192;10.064;2023-04-09T09:23:13;15.30;61.90
12164;DHT22;6145;50.192;10.064;2023-04-09T09:25:41;15.60;63.20
12164;DHT22;6145;50.192;10.064;2023-04-09T09:28:09;15.70;62.50
12164;DHT22;6145;50.192;10.064;2023-04-09T09:30:37;15.80;61.30
12164;DHT22;6145;50.192;10.064;2023-04-09T09:33:06;15.90;62.80
12164;DHT22;6145;50.192;10.064;2023-04-09T09:35:47;16.10;61.30
12164;DHT22;6145;50.192;10.064;2023-04-09T09:38:20;16.20;57.40
12164;DHT22;6145;50.192;10.064;2023-04-09T09:40:48;16.10;58.30
12164;DHT22;6145;50.192;10.064;2023-04-09T09:43:16;16.20;56.80
12164;DHT22;6145;50.192;10.064;2023-04-09T09:45:45;16.10;58.40
12164;DHT22;6145;50.192;10.064;2023-04-09T09:48:13;16.20;59.80
12164;DHT22;6145;50.192;10.064;2023-04-09T09:50:41;16.30;59.40
12164;DHT22;6145;50.192;10.064;2023-04-09T09:53:09;17.00;57.60
12164;DHT22;6145;50.192;10.064;2023-04-09T09:55:38;17.80;59.10
12164;DHT22;6145;50.192;10.064;2023-04-09T09:58:16;16.60;55.90
12164;DHT22;6145;50.192;10.064;2023-04-09T10:00:45;16.70;53.20
12164;DHT22;6145;50.192;10.064;2023-04-09T10:03:16;16.30;54.10
12164;DHT22;6145;50.192;10.064;2023-04-09T10:05:47;16.30;54.20
12164;DHT22;6145;50.192;10.064;2023-04-09T10:08:14;16.50;54.20
12164;DHT22;6145;50.192;10.064;2023-04-09T10:10:42;16.60;55.90
12164;DHT22;6145;50.192;10.064;2023-04-09T10:13:14;16.70;52.40
12164;DHT22;6145;50.192;10.064;2023-04-09T10:15:43;16.80;54.10
12164;DHT22;6145;50.192;10.064;2023-04-09T10:18:10;16.80;54.10
12164;DHT22;6145;50.192;10.064;2023-04-09T10:20:42;16.80;53.20
12164;DHT22;6145;50.192;10.064;2023-04-09T10:23:26;16.80;53.00
12164;DHT22;6145;50.192;10.064;2023-04-09T10:25:56;16.80;51.80
12164;DHT22;6145;50.192;10.064;2023-04-09T10:28:24;16.80;53.00
12164;DHT22;6145;50.192;10.064;2023-04-09T10:30:52;16.80;55.50
12164;DHT22;6145;50.192;10.064;2023-04-09T10:33:22;16.90;55.90
12164;DHT22;6145;50.192;10.064;2023-04-09T10:35:51;16.90;52.30
12164;DHT22;6145;50.192;10.064;2023-04-09T10:38:32;17.00;51.90
12164;DHT22;6145;50.192;10.064;2023-04-09T10:41:11;17.00;52.50
12164;DHT22;6145;50.192;10.064;2023-04-09T10:43:40;17.10;52.40
12164;DHT22;6145;50.192;10.064;2023-04-09T10:46:24;17.20;53.50
12164;DHT22;6145;50.192;10.064;2023-04-09T10:49:07;17.40;51.60
12164;DHT22;6145;50.192;10.064;2023-04-09T10:51:34;17.40;52.40
12164;DHT22;6145;50.192;10.064;2023-04-09T10:54:03;17.40;47.70
12164;DHT22;6145;50.192;10.064;2023-04-09T10:56:30;17.00;48.30
12164;DHT22;6145;50.192;10.064;2023-04-09T10:59:00;16.80;50.50
12164;DHT22;6145;50.192;10.064;2023-04-09T11:01:27;16.80;49.40
12164;DHT22;6145;50.192;10.064;2023-04-09T11:04:08;16.60;48.90
12164;DHT22;6145;50.192;10.064;2023-04-09T11:06:39;16.50;50.70
12164;DHT22;6145;50.192;10.064;2023-04-09T11:09:10;17.00;52.90
12164;DHT22;6145;50.192;10.064;2023-04-09T11:11:37;16.80;51.50
12164;DHT22;6145;50.192;10.064;2023-04-09T11:14:05;16.90;50.80
12164;DHT22;6145;50.192;10.064;2023-04-09T11:16:32;16.90;50.80
12164;DHT22;6145;50.192;10.064;2023-04-09T11:19:03;18.40;52.80
12164;DHT22;6145;50.192;10.064;2023-04-09T11:21:30;17.20;49.70
12164;DHT22;6145;50.192;10.064;2023-04-09T11:23:57;17.30;49.90
12164;DHT22;6145;50.192;10.064;2023-04-09T11:26:33;17.40;49.40
12164;DHT22;6145;50.192;10.064;2023-04-09T11:29:05;17.40;50.20
12164;DHT22;6145;50.192;10.064;2023-04-09T11:31:32;17.40;50.20
12164;DHT22;6145;50.192;10.064;2023-04-09T11:33:59;17.40;50.00
12164;DHT22;6145;50.192;10.064;2023-04-09T11:36:26;17.60;51.80
12164;DHT22;6145;50.192;10.064;2023-04-09T11:38:54;17.70;48.50
12164;DHT22;6145;50.192;10.064;2023-04-09T11:41:32;17.60;47.70
12164;DHT22;6145;50.192;10.064;2023-04-09T11:44:09;17.60;48.20
12164;DHT22;6145;50.192;10.064;2023-04-09T11:46:37;17.40;46.50
12164;DHT22;6145;50.192;10.064;2023-04-09T11:49:05;17.30;48.90
12164;DHT22;6145;50.192;10.064;2023-04-09T11:51:32;17.30;49.60
12164;DHT22;6145;50.192;10.064;2023-04-09T11:54:00;18.60;48.80
12164;DHT22;6145;50.192;10.064;2023-04-09T11:56:28;17.40;49.20
12164;DHT22;6145;50.192;10.064;2023-04-09T11:58:56;17.50;48.00
12164;DHT22;6145;50.192;10.064;2023-04-09T12:01:29;17.30;46.60
12164;DHT22;6145;50.192;10.064;2023-04-09T12:03:57;17.00;46.30
12164;DHT22;6145;50.192;10.064;2023-04-09T12:06:25;17.10;49.20
12164;DHT22;6145;50.192;10.064;2023-04-09T12:08:52;17.10;49.00
12164;DHT22;6145;50.192;10.064;2023-04-09T12:11:19;17.30;50.90
12164;DHT22;6145;50.192;10.064;2023-04-09T12:13:46;17.40;51.10
12164;DHT22;6145;50.192;10.064;2023-04-09T12:16:13;18.10;48.00
12164;DHT22;6145;50.192;10.064;2023-04-09T12:18:46;17.40;48.40
12164;DHT22;6145;50.192;10.064;2023-04-09T12:21:14;17.50;50.40
12164;DHT22;6145;50.192;10.064;2023-04-09T12:23:41;17.50;47.70
12164;DHT22;6145;50.192;10.064;2023-04-09T12:26:08;17.40;47.60
12164;DHT22;6145;50.192;10.064;2023-04-09T12:28:35;17.30;46.60
12164;DHT22;6145;50.192;10.064;2023-04-09T12:31:02;17.10;46.50
12164;DHT22;6145;50.192;10.064;2023-04-09T12:33:29;17.00;48.30
12164;DHT22;6145;50.192;10.064;2023-04-09T12:35:58;17.00;48.80
12164;DHT22;6145;50.192;10.064;2023-04-09T12:38:25;17.10;49.30
12164;DHT22;6145;50.192;10.064;2023-04-09T12:40:52;17.10;48.40
12164;DHT22;6145;50.192;10.064;2023-04-09T12:43:22;17.10;46.30
12164;DHT22;6145;50.192;10.064;2023-04-09T12:45:49;17.00;46.90
12164;DHT22;6145;50.192;10.064;2023-04-09T12:48:17;17.00;49.80
12164;DHT22;6145;50.192;10.064;2023-04-09T12:50:44;17.20;50.30
12164;DHT22;6145;50.192;10.064;2023-04-09T12:53:12;17.30;51.10
12164;DHT22;6145;50.192;10.064;2023-04-09T12:55:39;17.30;51.20
12164;DHT22;6145;50.192;10.064;2023-04-09T12:58:06;17.40;50.90
12164;DHT22;6145;50.192;10.064;2023-04-09T13:00:33;17.60;50.30
12164;DHT22;6145;50.192;10.064;2023-04-09T13:03:00;17.50;50.00
12164;DHT22;6145;50.192;10.064;2023-04-09T13:05:27;17.60;47.80
12164;DHT22;6145;50.192;10.064;2023-04-09T13:07:55;17.60;46.90
12164;DHT22;6145;50.192;10.064;2023-04-09T13:10:24;17.50;47.40
12164;DHT22;6145;50.192;10.064;2023-04-09T13:12:51;17.60;47.90
12164;DHT22;6145;50.192;10.064;2023-04-09T13:15:18;17.70;47.00
12164;DHT22;6145;50.192;10.064;2023-04-09T13:17:44;17.80;47.30
12164;DHT22;6145;50.192;10.064;2023-04-09T13:20:11;17.70;46.30
12164;DHT22;6145;50.192;10.064;2023-04-09T13:22:38;17.70;49.10
12164;DHT22;6145;50.192;10.064;2023-04-09T13:25:06;17.70;46.20
12164;DHT22;6145;50.192;10.064;2023-04-09T13:27:34;17.70;45.80
12164;DHT22;6145;50.192;10.064;2023-04-09T13:30:01;17.50;45.60
12164;DHT22;6145;50.192;10.064;2023-04-09T13:32:28;17.50;45.00
12164;DHT22;6145;50.192;10.064;2023-04-09T13:34:55;17.40;46.40
12164;DHT22;6145;50.192;10.064;2023-04-09T13:37:25;17.30;44.20
12164;DHT22;6145;50.192;10.064;2023-04-09T13:39:55;17.20;46.50
12164;DHT22;6145;50.192;10.064;2023-04-09T13:42:22;17.20;48.60
12164;DHT22;6145;50.192;10.064;2023-04-09T13:44:50;17.30;49.60
12164;DHT22;6145;50.192;10.064;2023-04-09T13:47:18;17.40;48.30
12164;DHT22;6145;50.192;10.064;2023-04-09T13:49:45;17.50;47.00
12164;DHT22;6145;50.192;10.064;2023-04-09T13:52:12;17.50;45.20
12164;DHT22;6145;50.192;10.064;2023-04-09T13:54:39;17.40;44.90
12164;DHT22;6145;50.192;10.064;2023-04-09T13:57:06;17.60;46.00
12164;DHT22;6145;50.192;10.064;2023-04-09T13:59:33;17.60;47.70
12164;DHT22;6145;50.192;10.064;2023-04-09T14:02:01;17.70;45.00
12164;DHT22;6145;50.192;10.064;2023-04-09T14:04:28;17.70;46.00
12164;DHT22;6145;50.192;10.064;2023-04-09T14:06:55;17.90;44.80
12164;DHT22;6145;50.192;10.064;2023-04-09T14:09:23;17.80;45.30
12164;DHT22;6145;50.192;10.064;2023-04-09T14:11:50;17.90;46.20
12164;DHT22;6145;50.192;10.064;2023-04-09T14:14:22;18.00;48.10
12164;DHT22;6145;50.192;10.064;2023-04-09T14:16:49;18.00;47.10
12164;DHT22;6145;50.192;10.064;2023-04-09T14:19:17;18.20;46.90
12164;DHT22;6145;50.192;10.064;2023-04-09T14:21:44;18.30;46.20
12164;DHT22;6145;50.192;10.064;2023-04-09T14:24:10;18.20;43.30
12164;DHT22;6145;50.192;10.064;2023-04-09T14:26:37;18.10;43.30
12164;DHT22;6145;50.192;10.064;2023-04-09T14:29:04;18.10;42.20
12164;DHT22;6145;50.192;10.064;2023-04-09T14:31:31;18.10;44.40
12164;DHT22;6145;50.192;10.064;2023-04-09T14:33:58;18.10;45.70
12164;DHT22;6145;50.192;10.064;2023-04-09T14:36:27;18.10;42.80
12164;DHT22;6145;50.192;10.064;2023-04-09T14:43:04;17.90;43.10
12164;DHT22;6145;50.192;10.064;2023-04-09T14:46:05;17.80;42.80
12164;DHT22;6145;50.192;10.064;2023-04-09T14:48:36;17.70;42.50
12164;DHT22;6145;50.192;10.064;2023-04-09T14:51:03;17.80;43.30
12164;DHT22;6145;50.192;10.064;2023-04-09T14:53:35;17.80;41.70
12164;DHT22;6145;50.192;10.064;2023-04-09T14:56:06;17.70;41.40
12164;DHT22;6145;50.192;10.064;2023-04-09T14:58:35;17.70;42.80
12164;DHT22;6145;50.192;10.064;2023-04-09T15:01:05;17.80;41.40
12164;DHT22;6145;50.192;10.064;2023-04-09T15:03:32;17.70;40.90
12164;DHT22;6145;50.192;10.064;2023-04-09T15:05:58;17.60;41.60
12164;DHT22;6145;50.192;10.064;2023-04-09T15:08:25;18.20;42.80
12164;DHT22;6145;50.192;10.064;2023-04-09T15:10:54;17.70;47.10
12164;DHT22;6145;50.192;10.064;2023-04-09T15:13:21;17.80;45.00
12164;DHT22;6145;50.192;10.064;2023-04-09T15:15:48;18.00;44.80
12164;DHT22;6145;50.192;10.064;2023-04-09T15:18:15;18.10;44.10
12164;DHT22;6145;50.192;10.064;2023-04-09T15:20:42;18.00;43.00
12164;DHT22;6145;50.192;10.064;2023-04-09T15:23:09;18.00;42.70
12164;DHT22;6145;50.192;10.064;2023-04-09T15:25:36;18.10;44.50
12164;DHT22;6145;50.192;10.064;2023-04-09T15:28:04;17.90;44.70
12164;DHT22;6145;50.192;10.064;2023-04-09T15:30:31;17.90;44.60
12164;DHT22;6145;50.192;10.064;2023-04-09T15:32:59;17.90;45.20
12164;DHT22;6145;50.192;10.064;2023-04-09T15:35:26;18.10;46.20
12164;DHT22;6145;50.192;10.064;2023-04-09T15:41:12;18.00;47.00
12164;DHT22;6145;50.192;10.064;2023-04-09T15:43:42;18.00;46.90
12164;DHT22;6145;50.192;10.064;2023-04-09T15:46:09;18.10;46.70
12164;DHT22;6145;50.192;10.064;2023-04-09T15:48:36;18.10;47.80
12164;DHT22;6145;50.192;10.064;2023-04-09T15:51:04;18.20;46.00